sensor_id;sensor_type;location;lat;lon;timestamp;P1;P2;P0
33264;PMS5003;31404;53.974;-1.086;2023-06-14T00:00:40;7;7;
33264;PMS5003;31404;53.974;-1.086;2023-06-14T00:05:41;9;9;
33264;PMS5003;31404;53.974;-1.086;2023-06-14T00:10:40;12;10;
33264;PMS5003;31404;53.974;-1.086;2023-06-14T00:15:40;10;10;
33264;PMS5003;31404;53.974;-1.086;2023-06-14T00:20:42;11;11;
33264;PMS5003;31404;53.974;-1.086;2023-06-14T00:25:40;12;9;
33264;PMS5003;31404;53.974;-1.086;2023-06-14T00:30:40;13;13;
33264;PMS5003;31404;53.974;-1.086;2023-06-14T00:35:43;10;10;
33264;PMS5003;31404;53.974;-1.086;2023-06-14T00:40:40;13;13;
33264;PMS5003;31404;53.974;-1.086;2023-06-14T00:45:41;21;18;
33264;PMS5003;31404;53.974;-1.086;2023-06-14T00:50:40;13;13;
33264;PMS5003;31404;53.974;-1.086;2023-06-14T00:55:39;18;17;
33264;PMS5003;31404;53.974;-1.086;2023-06-14T01:00:40;18;13;
33264;PMS5003;31404;53.974;-1.086;2023-06-14T01:05:40;13;13;
33264;PMS5003;31404;53.974;-1.086;2023-06-14T01:10:43;15;12;
33264;PMS5003;31404;53.974;-1.086;2023-06-14T01:15:41;13;13;
33264;PMS5003;31404;53.974;-1.086;2023-06-14T01:20:39;12;12;
33264;PMS5003;31404;53.974;-1.086;2023-06-14T01:25:40;12;12;
33264;PMS5003;31404;53.974;-1.086;2023-06-14T01:30:42;11;11;
33264;PMS5003;31404;53.974;-1.086;2023-06-14T01:35:40;10;10;
33264;PMS5003;31404;53.974;-1.086;2023-06-14T01:40:40;9;9;
33264;PMS5003;31404;53.974;-1.086;2023-06-14T01:45:40;13;10;
33264;PMS5003;31404;53.974;-1.086;2023-06-14T01:50:40;12;10;
33264;PMS5003;31404;53.974;-1.086;2023-06-14T01:55:39;14;11;
33264;PMS5003;31404;53.974;-1.086;2023-06-14T02:00:41;14;12;
33264;PMS5003;31404;53.974;-1.086;2023-06-14T02:05:39;12;10;
33264;PMS5003;31404;53.974;-1.086;2023-06-14T02:10:40;14;11;
33264;PMS5003;31404;53.974;-1.086;2023-06-14T02:15:40;16;11;
33264;PMS5003;31404;53.974;-1.086;2023-06-14T02:20:41;11;10;
33264;PMS5003;31404;53.974;-1.086;2023-06-14T02:25:39;11;11;
33264;PMS5003;31404;53.974;-1.086;2023-06-14T02:30:39;12;10;
33264;PMS5003;31404;53.974;-1.086;2023-06-14T02:35:40;13;10;
33264;PMS5003;31404;53.974;-1.086;2023-06-14T02:40:40;14;14;
33264;PMS5003;31404;53.974;-1.086;2023-06-14T02:45:40;8;8;
33264;PMS5003;31404;53.974;-1.086;2023-06-14T02:50:41;14;10;
33264;PMS5003;31404;53.974;-1.086;2023-06-14T02:55:39;16;16;
33264;PMS5003;31404;53.974;-1.086;2023-06-14T03:00:41;18;16;
33264;PMS5003;31404;53.974;-1.086;2023-06-14T03:05:40;16;16;
33264;PMS5003;31404;53.974;-1.086;2023-06-14T03:10:40;15;15;
33264;PMS5003;31404;53.974;-1.086;2023-06-14T03:15:41;14;14;
33264;PMS5003;31404;53.974;-1.086;2023-06-14T03:20:40;13;12;
33264;PMS5003;31404;53.974;-1.086;2023-06-14T03:25:40;14;14;
33264;PMS5003;31404;53.974;-1.086;2023-06-14T03:30:40;16;15;
33264;PMS5003;31404;53.974;-1.086;2023-06-14T03:35:39;16;16;
33264;PMS5003;31404;53.974;-1.086;2023-06-14T03:40:40;13;13;
33264;PMS5003;31404;53.974;-1.086;2023-06-14T03:45:40;14;13;
33264;PMS5003;31404;53.974;-1.086;2023-06-14T03:50:39;16;13;
33264;PMS5003;31404;53.974;-1.086;2023-06-14T03:55:40;16;14;
33264;PMS5003;31404;53.974;-1.086;2023-06-14T04:00:40;12;12;
33264;PMS5003;31404;53.974;-1.086;2023-06-14T04:05:41;15;14;
33264;PMS5003;31404;53.974;-1.086;2023-06-14T04:10:40;12;12;
33264;PMS5003;31404;53.974;-1.086;2023-06-14T04:15:41;15;15;
33264;PMS5003;31404;53.974;-1.086;2023-06-14T04:20:40;16;12;
33264;PMS5003;31404;53.974;-1.086;2023-06-14T04:25:40;13;13;
33264;PMS5003;31404;53.974;-1.086;2023-06-14T04:30:41;14;14;
33264;PMS5003;31404;53.974;-1.086;2023-06-14T04:35:41;12;12;
33264;PMS5003;31404;53.974;-1.086;2023-06-14T04:40:40;14;11;
33264;PMS5003;31404;53.974;-1.086;2023-06-14T04:45:40;13;11;
33264;PMS5003;31404;53.974;-1.086;2023-06-14T04:50:40;11;10;
33264;PMS5003;31404;53.974;-1.086;2023-06-14T04:55:40;11;11;
33264;PMS5003;31404;53.974;-1.086;2023-06-14T05:00:41;9;9;
33264;PMS5003;31404;53.974;-1.086;2023-06-14T05:05:40;8;7;
33264;PMS5003;31404;53.974;-1.086;2023-06-14T05:10:39;9;9;
33264;PMS5003;31404;53.974;-1.086;2023-06-14T05:15:40;8;8;
33264;PMS5003;31404;53.974;-1.086;2023-06-14T05:20:41;13;10;
33264;PMS5003;31404;53.974;-1.086;2023-06-14T05:25:43;12;9;
33264;PMS5003;31404;53.974;-1.086;2023-06-14T05:30:41;8;8;
33264;PMS5003;31404;53.974;-1.086;2023-06-14T05:35:40;7;7;
33264;PMS5003;31404;53.974;-1.086;2023-06-14T05:40:40;8;7;
33264;PMS5003;31404;53.974;-1.086;2023-06-14T05:45:41;7;6;
33264;PMS5003;31404;53.974;-1.086;2023-06-14T05:50:40;7;7;
33264;PMS5003;31404;53.974;-1.086;2023-06-14T05:56:16;9;6;
33264;PMS5003;31404;53.974;-1.086;2023-06-14T06:00:40;7;7;
33264;PMS5003;31404;53.974;-1.086;2023-06-14T06:05:41;8;8;
33264;PMS5003;31404;53.974;-1.086;2023-06-14T06:10:41;7;7;
33264;PMS5003;31404;53.974;-1.086;2023-06-14T06:15:41;8;8;
33264;PMS5003;31404;53.974;-1.086;2023-06-14T06:20:40;8;8;
33264;PMS5003;31404;53.974;-1.086;2023-06-14T06:25:42;7;7;
33264;PMS5003;31404;53.974;-1.086;2023-06-14T06:30:41;4;1;
33264;PMS5003;31404;53.974;-1.086;2023-06-14T06:35:40;7;6;
33264;PMS5003;31404;53.974;-1.086;2023-06-14T06:40:41;10;10;
33264;PMS5003;31404;53.974;-1.086;2023-06-14T06:45:42;9;4;
33264;PMS5003;31404;53.974;-1.086;2023-06-14T06:50:42;7;7;
33264;PMS5003;31404;53.974;-1.086;2023-06-14T06:55:43;6;4;
33264;PMS5003;31404;53.974;-1.086;2023-06-14T07:00:40;10;7;
33264;PMS5003;31404;53.974;-1.086;2023-06-14T07:05:41;6;6;
33264;PMS5003;31404;53.974;-1.086;2023-06-14T07:10:40;6;6;
33264;PMS5003;31404;53.974;-1.086;2023-06-14T07:15:40;6;6;
33264;PMS5003;31404;53.974;-1.086;2023-06-14T07:20:43;6;6;
33264;PMS5003;31404;53.974;-1.086;2023-06-14T07:25:42;9;8;
33264;PMS5003;31404;53.974;-1.086;2023-06-14T07:30:40;6;6;
33264;PMS5003;31404;53.974;-1.086;2023-06-14T07:35:41;8;8;
33264;PMS5003;31404;53.974;-1.086;2023-06-14T07:40:40;8;8;
33264;PMS5003;31404;53.974;-1.086;2023-06-14T07:45:41;6;6;
33264;PMS5003;31404;53.974;-1.086;2023-06-14T07:50:40;5;5;
33264;PMS5003;31404;53.974;-1.086;2023-06-14T07:55:40;7;7;
33264;PMS5003;31404;53.974;-1.086;2023-06-14T08:00:43;7;6;
33264;PMS5003;31404;53.974;-1.086;2023-06-14T08:05:40;9;7;
33264;PMS5003;31404;53.974;-1.086;2023-06-14T08:10:41;10;8;
33264;PMS5003;31404;53.974;-1.086;2023-06-14T08:15:41;6;6;
33264;PMS5003;31404;53.974;-1.086;2023-06-14T08:20:40;9;7;
33264;PMS5003;31404;53.974;-1.086;2023-06-14T08:25:41;9;8;
33264;PMS5003;31404;53.974;-1.086;2023-06-14T08:30:42;6;6;
33264;PMS5003;31404;53.974;-1.086;2023-06-14T08:35:41;5;5;
33264;PMS5003;31404;53.974;-1.086;2023-06-14T08:40:41;4;4;
33264;PMS5003;31404;53.974;-1.086;2023-06-14T08:45:40;5;4;
33264;PMS5003;31404;53.974;-1.086;2023-06-14T08:50:42;5;4;
33264;PMS5003;31404;53.974;-1.086;2023-06-14T08:55:40;5;5;
33264;PMS5003;31404;53.974;-1.086;2023-06-14T09:00:40;3;3;
33264;PMS5003;31404;53.974;-1.086;2023-06-14T09:05:40;4;4;
33264;PMS5003;31404;53.974;-1.086;2023-06-14T09:10:40;3;3;
33264;PMS5003;31404;53.974;-1.086;2023-06-14T09:15:40;3;3;
33264;PMS5003;31404;53.974;-1.086;2023-06-14T09:20:40;4;4;
33264;PMS5003;31404;53.974;-1.086;2023-06-14T09:25:43;3;3;
33264;PMS5003;31404;53.974;-1.086;2023-06-14T09:30:41;2;2;
33264;PMS5003;31404;53.974;-1.086;2023-06-14T09:35:41;3;3;
33264;PMS5003;31404;53.974;-1.086;2023-06-14T09:40:42;2;2;
33264;PMS5003;31404;53.974;-1.086;2023-06-14T09:45:45;2;2;
33264;PMS5003;31404;53.974;-1.086;2023-06-14T09:50:40;5;3;
33264;PMS5003;31404;53.974;-1.086;2023-06-14T09:55:41;3;3;
33264;PMS5003;31404;53.974;-1.086;2023-06-14T10:00:40;4;4;
33264;PMS5003;31404;53.974;-1.086;2023-06-14T10:05:42;4;4;
33264;PMS5003;31404;53.974;-1.086;2023-06-14T10:11:40;4;3;
33264;PMS5003;31404;53.974;-1.086;2023-06-14T10:15:42;3;3;
33264;PMS5003;31404;53.974;-1.086;2023-06-14T10:20:42;3;3;
33264;PMS5003;31404;53.974;-1.086;2023-06-14T10:25:41;8;5;
33264;PMS5003;31404;53.974;-1.086;2023-06-14T10:30:41;4;4;
33264;PMS5003;31404;53.974;-1.086;2023-06-14T10:35:40;5;5;
33264;PMS5003;31404;53.974;-1.086;2023-06-14T10:40:41;6;5;
33264;PMS5003;31404;53.974;-1.086;2023-06-14T10:50:41;4;4;
33264;PMS5003;31404;53.974;-1.086;2023-06-14T10:55:41;4;4;
33264;PMS5003;31404;53.974;-1.086;2023-06-14T11:00:41;5;5;
33264;PMS5003;31404;53.974;-1.086;2023-06-14T11:05:42;6;5;
33264;PMS5003;31404;53.974;-1.086;2023-06-14T11:10:41;5;4;
33264;PMS5003;31404;53.974;-1.086;2023-06-14T11:15:44;6;6;
33264;PMS5003;31404;53.974;-1.086;2023-06-14T11:20:40;6;6;
33264;PMS5003;31404;53.974;-1.086;2023-06-14T11:25:41;4;4;
33264;PMS5003;31404;53.974;-1.086;2023-06-14T11:30:39;4;4;
33264;PMS5003;31404;53.974;-1.086;2023-06-14T11:35:41;8;6;
33264;PMS5003;31404;53.974;-1.086;2023-06-14T11:40:41;5;4;
33264;PMS5003;31404;53.974;-1.086;2023-06-14T11:45:41;7;7;
33264;PMS5003;31404;53.974;-1.086;2023-06-14T11:50:40;7;5;
33264;PMS5003;31404;53.974;-1.086;2023-06-14T11:55:44;7;5;
33264;PMS5003;31404;53.974;-1.086;2023-06-14T12:00:40;6;5;
33264;PMS5003;31404;53.974;-1.086;2023-06-14T12:05:41;7;7;
33264;PMS5003;31404;53.974;-1.086;2023-06-14T12:10:40;6;5;
33264;PMS5003;31404;53.974;-1.086;2023-06-14T12:15:41;4;4;
33264;PMS5003;31404;53.974;-1.086;2023-06-14T12:20:41;5;5;
33264;PMS5003;31404;53.974;-1.086;2023-06-14T12:30:40;6;4;
33264;PMS5003;31404;53.974;-1.086;2023-06-14T12:35:41;4;4;
33264;PMS5003;31404;53.974;-1.086;2023-06-14T12:40:40;5;5;
33264;PMS5003;31404;53.974;-1.086;2023-06-14T12:45:40;5;5;
33264;PMS5003;31404;53.974;-1.086;2023-06-14T12:50:41;3;3;
33264;PMS5003;31404;53.974;-1.086;2023-06-14T12:55:40;4;4;
33264;PMS5003;31404;53.974;-1.086;2023-06-14T13:00:41;6;5;
33264;PMS5003;31404;53.974;-1.086;2023-06-14T13:05:41;6;5;
33264;PMS5003;31404;53.974;-1.086;2023-06-14T13:10:41;0;0;
33264;PMS5003;31404;53.974;-1.086;2023-06-14T13:15:42;7;5;
33264;PMS5003;31404;53.974;-1.086;2023-06-14T13:20:40;3;3;
33264;PMS5003;31404;53.974;-1.086;2023-06-14T13:25:41;7;6;
33264;PMS5003;31404;53.974;-1.086;2023-06-14T13:30:41;9;6;
33264;PMS5003;31404;53.974;-1.086;2023-06-14T13:35:42;7;7;
33264;PMS5003;31404;53.974;-1.086;2023-06-14T13:40:38;10;7;
33264;PMS5003;31404;53.974;-1.086;2023-06-14T13:45:40;6;6;
33264;PMS5003;31404;53.974;-1.086;2023-06-14T13:50:41;7;7;
33264;PMS5003;31404;53.974;-1.086;2023-06-14T13:55:40;7;7;
33264;PMS5003;31404;53.974;-1.086;2023-06-14T14:00:39;7;5;
33264;PMS5003;31404;53.974;-1.086;2023-06-14T14:05:41;4;4;
33264;PMS5003;31404;53.974;-1.086;2023-06-14T14:10:42;7;6;
33264;PMS5003;31404;53.974;-1.086;2023-06-14T14:15:41;5;5;
33264;PMS5003;31404;53.974;-1.086;2023-06-14T14:20:40;5;5;
33264;PMS5003;31404;53.974;-1.086;2023-06-14T14:25:40;5;5;
33264;PMS5003;31404;53.974;-1.086;2023-06-14T14:30:41;6;4;
33264;PMS5003;31404;53.974;-1.086;2023-06-14T14:35:42;6;6;
33264;PMS5003;31404;53.974;-1.086;2023-06-14T14:40:41;6;6;
33264;PMS5003;31404;53.974;-1.086;2023-06-14T14:45:41;5;5;
33264;PMS5003;31404;53.974;-1.086;2023-06-14T14:50:41;4;4;
33264;PMS5003;31404;53.974;-1.086;2023-06-14T14:55:41;3;3;
33264;PMS5003;31404;53.974;-1.086;2023-06-14T15:00:40;2;2;
33264;PMS5003;31404;53.974;-1.086;2023-06-14T15:05:41;3;3;
33264;PMS5003;31404;53.974;-1.086;2023-06-14T15:10:40;5;4;
33264;PMS5003;31404;53.974;-1.086;2023-06-14T15:15:40;2;2;
33264;PMS5003;31404;53.974;-1.086;2023-06-14T15:20:41;5;3;
33264;PMS5003;31404;53.974;-1.086;2023-06-14T15:25:40;4;2;
33264;PMS5003;31404;53.974;-1.086;2023-06-14T15:30:42;3;3;
33264;PMS5003;31404;53.974;-1.086;2023-06-14T15:35:41;3;3;
33264;PMS5003;31404;53.974;-1.086;2023-06-14T15:40:39;2;2;
33264;PMS5003;31404;53.974;-1.086;2023-06-14T15:45:46;2;2;
33264;PMS5003;31404;53.974;-1.086;2023-06-14T15:50:42;1;1;
33264;PMS5003;31404;53.974;-1.086;2023-06-14T15:55:41;3;3;
33264;PMS5003;31404;53.974;-1.086;2023-06-14T16:00:42;2;2;
33264;PMS5003;31404;53.974;-1.086;2023-06-14T16:05:41;3;3;
33264;PMS5003;31404;53.974;-1.086;2023-06-14T16:10:41;1;1;
33264;PMS5003;31404;53.974;-1.086;2023-06-14T16:15:41;2;2;
33264;PMS5003;31404;53.974;-1.086;2023-06-14T16:20:41;1;1;
33264;PMS5003;31404;53.974;-1.086;2023-06-14T16:25:41;1;1;
33264;PMS5003;31404;53.974;-1.086;2023-06-14T16:30:41;1;1;
33264;PMS5003;31404;53.974;-1.086;2023-06-14T16:35:41;1;1;
33264;PMS5003;31404;53.974;-1.086;2023-06-14T16:40:41;4;2;
33264;PMS5003;31404;53.974;-1.086;2023-06-14T16:45:41;1;1;
33264;PMS5003;31404;53.974;-1.086;2023-06-14T16:50:41;1;1;
33264;PMS5003;31404;53.974;-1.086;2023-06-14T16:55:45;0;0;
33264;PMS5003;31404;53.974;-1.086;2023-06-14T17:00:40;2;2;
33264;PMS5003;31404;53.974;-1.086;2023-06-14T17:10:41;0;0;
33264;PMS5003;31404;53.974;-1.086;2023-06-14T17:15:41;1;1;
33264;PMS5003;31404;53.974;-1.086;2023-06-14T17:20:42;1;1;
33264;PMS5003;31404;53.974;-1.086;2023-06-14T17:25:40;1;1;
33264;PMS5003;31404;53.974;-1.086;2023-06-14T17:30:40;2;2;
33264;PMS5003;31404;53.974;-1.086;2023-06-14T17:35:42;3;3;
33264;PMS5003;31404;53.974;-1.086;2023-06-14T17:40:42;2;1;
33264;PMS5003;31404;53.974;-1.086;2023-06-14T17:45:41;1;1;
33264;PMS5003;31404;53.974;-1.086;2023-06-14T17:50:42;7;6;
33264;PMS5003;31404;53.974;-1.086;2023-06-14T17:55:40;2;2;
33264;PMS5003;31404;53.974;-1.086;2023-06-14T18:00:41;4;4;
33264;PMS5003;31404;53.974;-1.086;2023-06-14T18:05:41;6;4;
33264;PMS5003;31404;53.974;-1.086;2023-06-14T18:10:42;6;4;
33264;PMS5003;31404;53.974;-1.086;2023-06-14T18:15:46;6;6;
33264;PMS5003;31404;53.974;-1.086;2023-06-14T18:20:43;5;5;
33264;PMS5003;31404;53.974;-1.086;2023-06-14T18:25:41;6;6;
33264;PMS5003;31404;53.974;-1.086;2023-06-14T18:30:41;6;6;
33264;PMS5003;31404;53.974;-1.086;2023-06-14T18:35:41;7;6;
33264;PMS5003;31404;53.974;-1.086;2023-06-14T18:40:41;7;7;
33264;PMS5003;31404;53.974;-1.086;2023-06-14T18:45:41;6;6;
33264;PMS5003;31404;53.974;-1.086;2023-06-14T18:50:40;6;6;
33264;PMS5003;31404;53.974;-1.086;2023-06-14T18:55:41;5;5;
33264;PMS5003;31404;53.974;-1.086;2023-06-14T19:00:41;5;5;
33264;PMS5003;31404;53.974;-1.086;2023-06-14T19:05:41;9;7;
33264;PMS5003;31404;53.974;-1.086;2023-06-14T19:10:46;8;8;
33264;PMS5003;31404;53.974;-1.086;2023-06-14T19:15:41;9;8;
33264;PMS5003;31404;53.974;-1.086;2023-06-14T19:20:39;8;8;
33264;PMS5003;31404;53.974;-1.086;2023-06-14T19:25:41;8;7;
33264;PMS5003;31404;53.974;-1.086;2023-06-14T19:30:41;7;7;
33264;PMS5003;31404;53.974;-1.086;2023-06-14T19:35:42;4;4;
33264;PMS5003;31404;53.974;-1.086;2023-06-14T19:40:41;7;6;
33264;PMS5003;31404;53.974;-1.086;2023-06-14T19:45:42;6;6;
33264;PMS5003;31404;53.974;-1.086;2023-06-14T19:50:41;9;9;
33264;PMS5003;31404;53.974;-1.086;2023-06-14T19:55:40;10;8;
33264;PMS5003;31404;53.974;-1.086;2023-06-14T20:00:40;16;16;
33264;PMS5003;31404;53.974;-1.086;2023-06-14T20:05:41;11;9;
33264;PMS5003;31404;53.974;-1.086;2023-06-14T20:10:42;12;10;
33264;PMS5003;31404;53.974;-1.086;2023-06-14T20:15:41;17;14;
33264;PMS5003;31404;53.974;-1.086;2023-06-14T20:20:41;11;9;
33264;PMS5003;31404;53.974;-1.086;2023-06-14T20:25:45;11;9;
33264;PMS5003;31404;53.974;-1.086;2023-06-14T20:30:41;16;16;
33264;PMS5003;31404;53.974;-1.086;2023-06-14T20:35:41;10;9;
33264;PMS5003;31404;53.974;-1.086;2023-06-14T20:40:38;9;9;
33264;PMS5003;31404;53.974;-1.086;2023-06-14T20:45:43;9;9;
33264;PMS5003;31404;53.974;-1.086;2023-06-14T20:50:43;8;7;
33264;PMS5003;31404;53.974;-1.086;2023-06-14T20:55:40;12;10;
33264;PMS5003;31404;53.974;-1.086;2023-06-14T21:00:41;11;9;
33264;PMS5003;31404;53.974;-1.086;2023-06-14T21:05:42;11;11;
33264;PMS5003;31404;53.974;-1.086;2023-06-14T21:10:41;8;8;
33264;PMS5003;31404;53.974;-1.086;2023-06-14T21:15:42;7;7;
33264;PMS5003;31404;53.974;-1.086;2023-06-14T21:20:41;11;11;
33264;PMS5003;31404;53.974;-1.086;2023-06-14T21:25:42;12;10;
33264;PMS5003;31404;53.974;-1.086;2023-06-14T21:30:41;11;10;
33264;PMS5003;31404;53.974;-1.086;2023-06-14T21:35:42;13;11;
33264;PMS5003;31404;53.974;-1.086;2023-06-14T21:40:41;10;10;
33264;PMS5003;31404;53.974;-1.086;2023-06-14T21:45:41;11;9;
33264;PMS5003;31404;53.974;-1.086;2023-06-14T21:50:41;11;11;
33264;PMS5003;31404;53.974;-1.086;2023-06-14T21:55:41;16;11;
33264;PMS5003;31404;53.974;-1.086;2023-06-14T22:00:41;12;11;
33264;PMS5003;31404;53.974;-1.086;2023-06-14T22:05:42;12;11;
33264;PMS5003;31404;53.974;-1.086;2023-06-14T22:10:41;14;14;
33264;PMS5003;31404;53.974;-1.086;2023-06-14T22:15:41;16;13;
33264;PMS5003;31404;53.974;-1.086;2023-06-14T22:20:41;8;8;
33264;PMS5003;31404;53.974;-1.086;2023-06-14T22:25:41;11;9;
33264;PMS5003;31404;53.974;-1.086;2023-06-14T22:30:41;10;10;
33264;PMS5003;31404;53.974;-1.086;2023-06-14T22:35:40;18;17;
33264;PMS5003;31404;53.974;-1.086;2023-06-14T22:40:41;14;14;
33264;PMS5003;31404;53.974;-1.086;2023-06-14T22:45:41;21;18;
33264;PMS5003;31404;53.974;-1.086;2023-06-14T22:50:40;18;17;
33264;PMS5003;31404;53.974;-1.086;2023-06-14T22:55:41;19;19;
33264;PMS5003;31404;53.974;-1.086;2023-06-14T23:00:41;15;15;
33264;PMS5003;31404;53.974;-1.086;2023-06-14T23:05:42;30;29;
33264;PMS5003;31404;53.974;-1.086;2023-06-14T23:10:42;18;13;
33264;PMS5003;31404;53.974;-1.086;2023-06-14T23:15:42;13;13;
33264;PMS5003;31404;53.974;-1.086;2023-06-14T23:20:40;11;9;
33264;PMS5003;31404;53.974;-1.086;2023-06-14T23:25:41;19;17;
33264;PMS5003;31404;53.974;-1.086;2023-06-14T23:30:41;14;14;
33264;PMS5003;31404;53.974;-1.086;2023-06-14T23:35:40;13;11;
33264;PMS5003;31404;53.974;-1.086;2023-06-14T23:40:41;23;21;
33264;PMS5003;31404;53.974;-1.086;2023-06-14T23:45:42;18;17;
33264;PMS5003;31404;53.974;-1.086;2023-06-14T23:50:41;15;14;
33264;PMS5003;31404;53.974;-1.086;2023-06-14T23:55:41;18;17;
